Time;durP1;ratioP1;P1;durP2;ratioP2;P2;SDS_P1;SDS_P2;PMS_P1;PMS_P2;Temp;Humidity;BMP_temperature;BMP_pressure;BME280_temperature;BME280_humidity;BME280_pressure;Samples;Min_cycle;Max_cycle;Signal;HPM_P1;HPM_P2
2024/01/10 00:02:21;;;;;;;14.93;7.25;;;;;;;;;;5051589;28;20029;-76
2024/01/10 00:04:47;;;;;;;19.08;7.15;;;;;;;;;;5040661;28;20013;-75
2024/01/10 00:07:13;;;;;;;17.23;7.25;;;;;;;;;;5057030;28;20025;-76
2024/01/10 00:09:39;;;;;;;15.65;7.00;;;;;;;;;;5051521;28;20025;-75
2024/01/10 00:12:08;;;;;;;20.05;7.60;;;;;;;;;;5055272;28;20025;-77
2024/01/10 00:14:44;;;;;;;16.90;7.07;;;;;;;;;;5052483;28;20002;-74
2024/01/10 00:17:20;;;;;;;14.75;6.82;;;;;;;;;;5057093;28;20013;-75
2024/01/10 00:19:49;;;;;;;19.23;7.82;;;;;;;;;;5026381;28;20109;-75
2024/01/10 00:22:18;;;;;;;16.67;7.55;;;;;;;;;;5045022;28;20022;-74
2024/01/10 00:24:44;;;;;;;18.38;7.47;;;;;;;;;;5046866;28;20017;-75
2024/01/10 00:27:12;;;;;;;14.52;6.70;;;;;;;;;;5030204;28;20066;-77
2024/01/10 00:29:44;;;;;;;14.40;6.90;;;;;;;;;;5026942;28;20018;-75
2024/01/10 00:32:10;;;;;;;15.23;7.30;;;;;;;;;;5045400;28;20112;-78
2024/01/10 00:34:36;;;;;;;16.05;7.05;;;;;;;;;;5046599;28;20068;-77
2024/01/10 00:37:11;;;;;;;13.82;6.00;;;;;;;;;;5045039;28;20043;-77
2024/01/10 00:39:39;;;;;;;15.10;7.30;;;;;;;;;;5027316;28;20095;-78
2024/01/10 00:42:08;;;;;;;20.48;7.30;;;;;;;;;;5042163;28;20196;-78
2024/01/10 00:44:48;;;;;;;;;;;;;;;;;;;;;
2024/01/10 00:47:22;;;;;;;17.77;6.32;;;;;;;;;;5042688;28;20045;-78
2024/01/10 00:49:48;;;;;;;16.98;7.20;;;;;;;;;;5036117;28;20030;-79
2024/01/10 00:52:16;;;;;;;19.55;8.15;;;;;;;;;;5041809;28;20231;-77
2024/01/10 00:54:44;;;;;;;15.70;6.85;;;;;;;;;;5028231;28;20054;-77
2024/01/10 00:57:23;;;;;;;;;;;;;;;;;;;;;
2024/01/10 00:59:49;;;;;;;14.80;6.90;;;;;;;;;;5043975;28;20053;-78
2024/01/10 01:02:15;;;;;;;19.75;8.23;;;;;;;;;;5025128;28;20170;-75
2024/01/10 01:04:47;;;;;;;15.60;7.57;;;;;;;;;;5044902;28;20048;-78
2024/01/10 01:07:23;;;;;;;14.65;7.20;;;;;;;;;;5042269;28;20013;-76
2024/01/10 01:10:00;;;;;;;29.10;8.70;;;;;;;;;;5025866;28;20085;-78
2024/01/10 01:12:28;;;;;;;17.20;7.28;;;;;;;;;;5026999;28;20014;-76
2024/01/10 01:14:57;;;;;;;16.13;8.13;;;;;;;;;;5041599;28;20029;-76
2024/01/10 01:17:26;;;;;;;12.60;6.50;;;;;;;;;;5041047;28;20025;-77
2024/01/10 01:19:57;;;;;;;17.30;7.05;;;;;;;;;;5030682;28;20069;-77
2024/01/10 01:22:43;;;;;;;19.17;7.43;;;;;;;;;;5059454;27;20467;-76
2024/01/10 01:25:11;;;;;;;15.23;6.85;;;;;;;;;;5077366;28;20036;-76
2024/01/10 01:27:43;;;;;;;16.95;7.43;;;;;;;;;;5064374;28;20021;-78
2024/01/10 01:30:31;;;;;;;19.90;7.90;;;;;;;;;;5089504;28;21299;-78
2024/01/10 01:33:03;;;;;;;16.50;7.38;;;;;;;;;;5060335;28;20021;-76
2024/01/10 01:35:32;;;;;;;18.30;8.27;;;;;;;;;;5089180;28;20025;-76
2024/01/10 01:38:05;;;;;;;17.38;7.38;;;;;;;;;;5071709;28;20042;-80
2024/01/10 01:40:37;;;;;;;19.88;8.43;;;;;;;;;;5057231;28;20046;-79
2024/01/10 01:43:16;;;;;;;16.75;7.40;;;;;;;;;;5056083;28;20136;-77
2024/01/10 01:45:42;;;;;;;15.90;7.65;;;;;;;;;;5056139;28;20034;-78
2024/01/10 01:48:17;;;;;;;17.67;8.65;;;;;;;;;;5071519;28;20033;-76
2024/01/10 01:50:46;;;;;;;15.70;7.57;;;;;;;;;;5056867;28;20029;-78
2024/01/10 01:53:23;;;;;;;15.85;7.00;;;;;;;;;;5070770;28;20029;-80
2024/01/10 01:55:51;;;;;;;16.83;7.43;;;;;;;;;;5055021;28;20029;-78
2024/01/10 01:58:18;;;;;;;16.17;8.02;;;;;;;;;;5062999;28;20878;-76
2024/01/10 02:00:47;;;;;;;13.18;6.97;;;;;;;;;;5057698;28;20038;-78
2024/01/10 02:03:15;;;;;;;15.73;6.63;;;;;;;;;;5057800;28;20039;-77
2024/01/10 02:05:52;;;;;;;15.52;6.63;;;;;;;;;;5057463;28;20034;-76
2024/01/10 02:08:18;;;;;;;18.42;7.78;;;;;;;;;;5072180;28;20076;-78
2024/01/10 02:10:44;;;;;;;16.27;7.47;;;;;;;;;;5070590;28;20056;-78
2024/01/10 02:13:11;;;;;;;18.08;7.72;;;;;;;;;;5058207;28;20029;-77
2024/01/10 02:15:46;;;;;;;18.17;7.57;;;;;;;;;;5057283;28;20021;-76
2024/01/10 02:18:15;;;;;;;17.92;6.97;;;;;;;;;;5057096;28;20096;-76
2024/01/10 02:20:44;;;;;;;14.75;6.10;;;;;;;;;;5056927;28;20017;-77
2024/01/10 02:23:13;;;;;;;16.30;6.82;;;;;;;;;;5065174;28;20017;-77
2024/01/10 02:25:42;;;;;;;16.38;7.57;;;;;;;;;;5071199;28;20044;-82
2024/01/10 02:28:09;;;;;;;15.50;7.80;;;;;;;;;;5085525;28;20085;-80
2024/01/10 02:30:35;;;;;;;17.02;7.22;;;;;;;;;;5055141;28;20227;-79
2024/01/10 02:33:04;;;;;;;17.60;7.93;;;;;;;;;;5049754;28;20033;-78
2024/01/10 02:35:32;;;;;;;14.73;6.40;;;;;;;;;;5043544;28;20021;-79
2024/01/10 02:37:59;;;;;;;13.70;6.25;;;;;;;;;;5057620;28;20026;-77
2024/01/10 02:40:25;;;;;;;15.55;7.00;;;;;;;;;;5057452;28;20449;-79
2024/01/10 02:42:51;;;;;;;13.82;6.22;;;;;;;;;;5042413;28;20030;-80
2024/01/10 02:45:17;;;;;;;20.17;7.25;;;;;;;;;;5042743;28;20032;-79
2024/01/10 02:47:49;;;;;;;15.05;7.55;;;;;;;;;;5055181;28;20026;-77
2024/01/10 02:50:16;;;;;;;16.63;7.30;;;;;;;;;;5038359;28;20086;-79
2024/01/10 02:52:45;;;;;;;13.82;6.85;;;;;;;;;;5052912;28;20036;-77
2024/01/10 02:55:11;;;;;;;13.63;6.72;;;;;;;;;;5071855;28;20052;-79
2024/01/10 02:57:45;;;;;;;13.27;6.97;;;;;;;;;;5038626;28;20028;-79
2024/01/10 03:00:12;;;;;;;16.27;7.15;;;;;;;;;;5055940;28;20030;-80
2024/01/10 03:02:38;;;;;;;15.40;7.18;;;;;;;;;;5055109;28;20026;-80
2024/01/10 03:05:07;;;;;;;19.10;6.50;;;;;;;;;;5038560;28;20057;-78
2024/01/10 03:07:33;;;;;;;14.05;6.40;;;;;;;;;;5051261;28;20067;-80
2024/01/10 03:10:03;;;;;;;17.00;7.05;;;;;;;;;;5043027;28;20025;-78
2024/01/10 03:12:32;;;;;;;16.60;7.18;;;;;;;;;;5039513;28;20033;-79
2024/01/10 03:15:00;;;;;;;16.83;7.03;;;;;;;;;;5053848;28;20038;-80
2024/01/10 03:17:29;;;;;;;15.43;6.43;;;;;;;;;;5042063;28;20135;-78
2024/01/10 03:20:02;;;;;;;15.95;7.00;;;;;;;;;;5055453;28;20101;-80
2024/01/10 03:22:29;;;;;;;16.42;6.70;;;;;;;;;;5040432;28;20062;-76
2024/01/10 03:25:00;;;;;;;14.57;6.30;;;;;;;;;;5053554;28;20026;-78
2024/01/10 03:27:26;;;;;;;13.48;6.85;;;;;;;;;;5039253;28;20021;-77
2024/01/10 03:29:52;;;;;;;14.15;6.82;;;;;;;;;;5053745;28;20650;-80
2024/01/10 03:32:21;;;;;;;22.23;6.45;;;;;;;;;;5053861;28;20057;-77
2024/01/10 03:34:51;;;;;;;18.27;7.05;;;;;;;;;;5044562;28;20037;-77
2024/01/10 03:37:17;;;;;;;15.43;6.80;;;;;;;;;;5053350;28;20037;-79
2024/01/10 03:39:53;;;;;;;;;;;;;;;;;;;;;
2024/01/10 03:42:22;;;;;;;16.13;7.47;;;;;;;;;;5039083;28;20117;-78
2024/01/10 03:44:48;;;;;;;17.67;7.38;;;;;;;;;;5036209;28;20060;-78
2024/01/10 03:47:16;;;;;;;21.95;7.95;;;;;;;;;;5069967;28;20033;-80
2024/01/10 03:49:45;;;;;;;17.40;7.85;;;;;;;;;;5037529;28;20103;-77
2024/01/10 03:52:11;;;;;;;13.68;6.65;;;;;;;;;;5037626;28;20134;-77
2024/01/10 03:54:38;;;;;;;13.90;6.63;;;;;;;;;;5054463;28;20038;-81
2024/01/10 03:57:07;;;;;;;16.42;6.82;;;;;;;;;;5054423;28;20048;-79
2024/01/10 03:59:33;;;;;;;17.25;7.63;;;;;;;;;;5045705;28;20509;-78
2024/01/10 04:02:00;;;;;;;15.18;7.53;;;;;;;;;;5054986;28;20022;-77
2024/01/10 04:04:26;;;;;;;14.18;7.95;;;;;;;;;;5036386;28;20028;-80
2024/01/10 04:06:52;;;;;;;19.15;8.07;;;;;;;;;;5069437;28;20316;-79
2024/01/10 04:09:19;;;;;;;16.15;6.90;;;;;;;;;;5036898;28;20029;-79
2024/01/10 04:11:47;;;;;;;15.73;6.90;;;;;;;;;;5072166;28;20033;-79
2024/01/10 04:14:13;;;;;;;16.25;7.60;;;;;;;;;;5070690;28;20040;-78
2024/01/10 04:16:39;;;;;;;15.63;6.78;;;;;;;;;;5051883;28;20361;-80
2024/01/10 04:19:06;;;;;;;17.10;6.32;;;;;;;;;;5037261;28;20049;-78
2024/01/10 04:21:32;;;;;;;18.00;6.90;;;;;;;;;;5041078;28;20040;-78
2024/01/10 04:23:58;;;;;;;16.73;7.18;;;;;;;;;;5052571;28;20034;-78
2024/01/10 04:26:25;;;;;;;19.55;6.97;;;;;;;;;;5048503;28;20546;-79
2024/01/10 04:28:53;;;;;;;18.75;6.47;;;;;;;;;;5052952;28;20025;-80
2024/01/10 04:31:19;;;;;;;18.10;6.80;;;;;;;;;;5052994;28;20037;-81
2024/01/10 04:33:47;;;;;;;16.65;7.57;;;;;;;;;;5052831;28;20055;-80
2024/01/10 04:36:14;;;;;;;17.83;7.57;;;;;;;;;;5053519;28;20049;-77
2024/01/10 04:38:45;;;;;;;17.13;8.25;;;;;;;;;;5048102;28;20065;-79
2024/01/10 04:41:13;;;;;;;17.08;7.05;;;;;;;;;;5038566;28;20029;-78
2024/01/10 04:43:39;;;;;;;15.60;6.40;;;;;;;;;;5057920;28;20576;-80
2024/01/10 04:46:06;;;;;;;20.05;7.57;;;;;;;;;;5048504;28;20042;-79
2024/01/10 04:48:34;;;;;;;18.33;6.80;;;;;;;;;;5046139;28;20041;-81
2024/01/10 04:51:01;;;;;;;15.30;6.97;;;;;;;;;;5050809;28;20039;-80
2024/01/10 04:53:29;;;;;;;17.08;7.47;;;;;;;;;;5049192;28;20037;-80
2024/01/10 04:55:57;;;;;;;18.75;7.97;;;;;;;;;;5048995;28;20140;-80
2024/01/10 04:58:23;;;;;;;17.17;7.97;;;;;;;;;;5047340;28;20041;-81
2024/01/10 05:00:49;;;;;;;16.02;7.07;;;;;;;;;;5048624;28;20030;-81
2024/01/10 05:03:16;;;;;;;17.63;7.35;;;;;;;;;;5048061;28;20052;-80
2024/01/10 05:05:44;;;;;;;14.68;6.20;;;;;;;;;;5047143;28;20120;-81
2024/01/10 05:08:10;;;;;;;15.40;8.02;;;;;;;;;;5064041;28;20081;-81
2024/01/10 05:10:36;;;;;;;16.05;7.68;;;;;;;;;;5048879;28;20029;-81
2024/01/10 05:13:05;;;;;;;16.42;7.28;;;;;;;;;;5045526;28;20029;-79
2024/01/10 05:15:31;;;;;;;21.73;8.02;;;;;;;;;;5049871;28;20068;-79
2024/01/10 05:17:57;;;;;;;18.65;7.30;;;;;;;;;;5048624;28;20097;-81
2024/01/10 05:20:23;;;;;;;18.20;8.55;;;;;;;;;;5048394;28;20068;-81
2024/01/10 05:22:49;;;;;;;17.08;7.50;;;;;;;;;;5050551;28;20033;-80
2024/01/10 05:25:18;;;;;;;14.07;6.63;;;;;;;;;;5040039;28;20048;-80
2024/01/10 05:27:44;;;;;;;14.77;6.72;;;;;;;;;;5046838;28;20121;-81
2024/01/10 05:30:12;;;;;;;15.20;6.72;;;;;;;;;;5052082;28;20024;-81
2024/01/10 05:32:41;;;;;;;17.15;7.95;;;;;;;;;;5049419;28;20033;-79
2024/01/10 05:35:08;;;;;;;19.92;7.53;;;;;;;;;;5051089;28;20040;-80
2024/01/10 05:37:34;;;;;;;23.90;6.80;;;;;;;;;;5050106;28;20029;-81
2024/01/10 05:40:04;;;;;;;20.98;6.80;;;;;;;;;;5047237;28;20029;-80
2024/01/10 05:42:32;;;;;;;19.05;7.60;;;;;;;;;;5041127;28;20030;-81
2024/01/10 05:44:59;;;;;;;23.35;7.05;;;;;;;;;;5055468;28;20045;-80
2024/01/10 05:47:27;;;;;;;20.05;8.18;;;;;;;;;;5049822;28;20026;-80
2024/01/10 05:49:53;;;;;;;19.88;7.57;;;;;;;;;;5054778;28;20033;-80
2024/01/10 05:52:22;;;;;;;17.85;8.10;;;;;;;;;;5048084;28;20037;-80
2024/01/10 05:54:53;;;;;;;27.50;8.68;;;;;;;;;;5048297;28;20100;-80
2024/01/10 05:57:21;;;;;;;22.08;7.07;;;;;;;;;;5078401;28;20017;-79
2024/01/10 05:59:51;;;;;;;17.10;6.88;;;;;;;;;;5045123;28;20045;-80
2024/01/10 06:02:17;;;;;;;22.85;8.70;;;;;;;;;;5048785;28;20482;-81
2024/01/10 06:04:49;;;;;;;19.42;7.70;;;;;;;;;;5046330;28;20052;-78
2024/01/10 06:07:15;;;;;;;23.90;8.77;;;;;;;;;;5040270;28;20032;-80
2024/01/10 06:09:43;;;;;;;19.35;7.78;;;;;;;;;;5049577;28;20048;-80
2024/01/10 06:12:09;;;;;;;18.33;8.02;;;;;;;;;;5050367;28;20026;-80
2024/01/10 06:14:38;;;;;;;20.15;7.28;;;;;;;;;;5054164;28;20354;-80
2024/01/10 06:17:04;;;;;;;24.27;8.45;;;;;;;;;;5053408;28;20093;-79
2024/01/10 06:19:33;;;;;;;17.40;8.45;;;;;;;;;;5043222;28;20033;-80
2024/01/10 06:21:59;;;;;;;21.20;7.88;;;;;;;;;;5041298;28;20089;-79
2024/01/10 06:24:29;;;;;;;20.52;8.27;;;;;;;;;;5057356;28;20056;-75
2024/01/10 06:26:55;;;;;;;28.75;10.60;;;;;;;;;;5042699;28;20028;-79
2024/01/10 06:29:22;;;;;;;24.05;8.98;;;;;;;;;;5045095;28;20032;-80
2024/01/10 06:31:50;;;;;;;23.45;7.68;;;;;;;;;;5054917;28;20034;-78
2024/01/10 06:34:18;;;;;;;29.52;10.10;;;;;;;;;;5040049;28;20037;-81
2024/01/10 06:36:44;;;;;;;21.77;8.63;;;;;;;;;;5042124;28;20025;-77
2024/01/10 06:39:15;;;;;;;17.65;8.35;;;;;;;;;;5037420;28;20056;-80
2024/01/10 06:41:42;;;;;;;17.63;7.40;;;;;;;;;;5053726;28;20037;-80
2024/01/10 06:44:08;;;;;;;17.88;8.80;;;;;;;;;;5038922;28;20040;-78
2024/01/10 06:46:37;;;;;;;22.65;8.23;;;;;;;;;;5039145;28;20117;-80
2024/01/10 06:49:07;;;;;;;20.85;7.75;;;;;;;;;;5037266;28;20030;-78
2024/01/10 06:51:33;;;;;;;37.00;9.27;;;;;;;;;;5038565;28;20041;-79
2024/01/10 06:54:05;;;;;;;31.73;9.10;;;;;;;;;;5053508;28;20120;-75
2024/01/10 06:56:32;;;;;;;22.88;8.73;;;;;;;;;;5039329;28;20060;-79
2024/01/10 06:58:58;;;;;;;25.48;9.10;;;;;;;;;;5035625;28;20029;-81
2024/01/10 07:01:24;;;;;;;22.00;8.45;;;;;;;;;;5040266;28;20499;-78
2024/01/10 07:03:51;;;;;;;17.85;8.02;;;;;;;;;;5037782;28;20048;-81
2024/01/10 07:06:17;;;;;;;19.60;8.77;;;;;;;;;;5055726;28;20036;-76
2024/01/10 07:08:51;;;;;;;22.55;7.82;;;;;;;;;;5042648;28;20129;-78
2024/01/10 07:11:17;;;;;;;21.58;8.10;;;;;;;;;;5038745;28;20037;-77
2024/01/10 07:13:44;;;;;;;21.40;8.43;;;;;;;;;;5037555;28;20029;-81
2024/01/10 07:16:10;;;;;;;25.30;10.02;;;;;;;;;;5042207;28;20040;-77
2024/01/10 07:18:36;;;;;;;21.35;9.75;;;;;;;;;;5037208;28;20140;-79
2024/01/10 07:21:02;;;;;;;21.67;8.82;;;;;;;;;;5041308;28;20033;-77
2024/01/10 07:23:28;;;;;;;27.75;9.27;;;;;;;;;;5042251;28;20072;-78
2024/01/10 07:25:54;;;;;;;29.00;10.88;;;;;;;;;;5037249;28;20042;-79
2024/01/10 07:28:21;;;;;;;25.92;10.07;;;;;;;;;;5037625;28;20026;-79
2024/01/10 07:30:54;;;;;;;28.88;12.05;;;;;;;;;;5040323;28;20044;-77
2024/01/10 07:33:20;;;;;;;21.10;8.63;;;;;;;;;;5072150;28;20113;-77
2024/01/10 07:35:47;;;;;;;20.50;9.40;;;;;;;;;;5040807;28;20041;-75
2024/01/10 07:38:15;;;;;;;23.90;10.02;;;;;;;;;;5039831;28;20037;-79
2024/01/10 07:40:42;;;;;;;19.83;8.50;;;;;;;;;;5053333;28;20034;-78
2024/01/10 07:43:08;;;;;;;28.58;10.13;;;;;;;;;;5038051;28;20022;-79
2024/01/10 07:45:36;;;;;;;29.08;10.98;;;;;;;;;;5050813;28;20088;-77
2024/01/10 07:48:02;;;;;;;29.58;12.50;;;;;;;;;;5070001;28;20017;-76
2024/01/10 07:50:31;;;;;;;34.97;14.63;;;;;;;;;;5068217;28;20033;-80
2024/01/10 07:53:01;;;;;;;31.85;11.02;;;;;;;;;;5051574;28;20048;-76
2024/01/10 07:55:29;;;;;;;24.55;10.63;;;;;;;;;;5035829;28;20029;-79
2024/01/10 07:57:55;;;;;;;20.85;9.38;;;;;;;;;;5055453;28;20075;-80
2024/01/10 08:00:22;;;;;;;17.80;9.48;;;;;;;;;;5034071;28;20033;-79
2024/01/10 08:02:51;;;;;;;19.73;9.45;;;;;;;;;;5039558;28;20029;-78
2024/01/10 08:05:17;;;;;;;29.50;10.27;;;;;;;;;;5037328;28;20097;-79
2024/01/10 08:07:50;;;;;;;17.95;8.10;;;;;;;;;;5038747;28;20033;-81
2024/01/10 08:10:17;;;;;;;23.10;8.10;;;;;;;;;;5039484;28;20063;-80
2024/01/10 08:12:44;;;;;;;22.33;8.98;;;;;;;;;;5035633;28;20052;-80
2024/01/10 08:15:10;;;;;;;20.35;9.55;;;;;;;;;;5035090;28;20040;-76
2024/01/10 08:17:39;;;;;;;27.40;10.82;;;;;;;;;;5070626;28;20041;-77
2024/01/10 08:20:06;;;;;;;22.42;9.43;;;;;;;;;;5066899;28;20036;-79
2024/01/10 08:22:32;;;;;;;24.83;9.95;;;;;;;;;;5037577;28;20175;-80
2024/01/10 08:24:58;;;;;;;24.40;10.18;;;;;;;;;;5063663;28;20071;-79
2024/01/10 08:27:27;;;;;;;26.58;10.00;;;;;;;;;;5050099;28;20045;-78
2024/01/10 08:29:55;;;;;;;20.58;9.55;;;;;;;;;;5067908;28;20036;-80
2024/01/10 08:32:24;;;;;;;25.02;12.43;;;;;;;;;;5036513;28;20037;-81
2024/01/10 08:34:52;;;;;;;26.20;11.05;;;;;;;;;;5066481;28;20101;-81
2024/01/10 08:37:21;;;;;;;26.13;11.85;;;;;;;;;;5038059;28;20037;-79
2024/01/10 08:39:50;;;;;;;27.33;10.93;;;;;;;;;;5069126;28;20060;-79
2024/01/10 08:42:16;;;;;;;26.15;10.70;;;;;;;;;;5038057;28;20079;-77
2024/01/10 08:44:44;;;;;;;29.85;10.70;;;;;;;;;;5053653;28;20040;-81
2024/01/10 08:47:18;;;;;;;25.73;11.52;;;;;;;;;;5041571;28;20040;-80
2024/01/10 08:49:46;;;;;;;25.95;10.68;;;;;;;;;;5041690;28;20029;-79
2024/01/10 08:52:22;;;;;;;;;;;;;;;;;;;;;
2024/01/10 08:54:51;;;;;;;21.27;9.50;;;;;;;;;;5037905;28;20089;-77
2024/01/10 08:57:20;;;;;;;22.42;9.45;;;;;;;;;;5036245;28;20033;-76
2024/01/10 08:59:46;;;;;;;23.85;10.77;;;;;;;;;;5070071;28;20038;-78
2024/01/10 09:02:14;;;;;;;26.50;10.05;;;;;;;;;;5054622;28;20049;-78
2024/01/10 09:04:41;;;;;;;21.95;9.52;;;;;;;;;;5038222;28;20022;-78
2024/01/10 09:07:10;;;;;;;28.40;11.13;;;;;;;;;;5055448;28;20029;-78
2024/01/10 09:09:39;;;;;;;29.13;9.73;;;;;;;;;;5067399;28;20048;-79
2024/01/10 09:12:05;;;;;;;20.17;9.70;;;;;;;;;;5040457;28;20493;-77
2024/01/10 09:14:39;;;;;;;26.95;11.68;;;;;;;;;;5041831;28;20030;-77
2024/01/10 09:17:12;;;;;;;24.20;10.15;;;;;;;;;;5056331;28;20021;-77
2024/01/10 09:19:39;;;;;;;27.67;12.07;;;;;;;;;;5042411;28;20041;-78
2024/01/10 09:22:22;;;;;;;27.35;11.73;;;;;;;;;;5042071;28;20073;-76
2024/01/10 09:24:49;;;;;;;29.08;11.90;;;;;;;;;;5055937;28;20030;-79
2024/01/10 09:27:15;;;;;;;24.48;10.52;;;;;;;;;;5059776;28;20105;-78
2024/01/10 09:29:42;;;;;;;27.70;11.35;;;;;;;;;;5043143;28;20038;-77
2024/01/10 09:32:08;;;;;;;28.27;10.85;;;;;;;;;;5043958;28;20050;-79
2024/01/10 09:34:37;;;;;;;27.45;10.77;;;;;;;;;;5038749;28;20026;-78
2024/01/10 09:37:05;;;;;;;28.63;11.18;;;;;;;;;;5039383;28;20064;-77
2024/01/10 09:39:33;;;;;;;32.75;12.15;;;;;;;;;;5071356;28;20030;-79
2024/01/10 09:41:59;;;;;;;30.92;11.00;;;;;;;;;;5038595;28;20041;-78
2024/01/10 09:44:33;;;;;;;23.80;10.73;;;;;;;;;;5060583;28;20033;-76
2024/01/10 09:46:59;;;;;;;29.88;14.30;;;;;;;;;;5063859;28;20060;-78
2024/01/10 09:49:25;;;;;;;27.75;12.20;;;;;;;;;;5037501;28;20037;-75
2024/01/10 09:51:56;;;;;;;26.02;11.57;;;;;;;;;;5053106;28;20014;-75
2024/01/10 09:54:24;;;;;;;27.92;11.82;;;;;;;;;;5078265;28;20025;-77
2024/01/10 09:56:57;;;;;;;29.42;11.50;;;;;;;;;;5044268;28;20068;-76
2024/01/10 09:59:25;;;;;;;31.55;13.73;;;;;;;;;;5046554;28;20060;-80
2024/01/10 10:01:56;;;;;;;28.17;11.35;;;;;;;;;;5048264;28;20041;-77
2024/01/10 10:05:06;;;;;;;27.05;12.30;;;;;;;;;;5061077;28;20038;-77
2024/01/10 10:07:43;;;;;;;26.30;11.85;;;;;;;;;;4971187;28;20046;-77
2024/01/10 10:10:09;;;;;;;30.95;12.75;;;;;;;;;;4972920;28;20043;-76
2024/01/10 10:12:57;;;;;;;32.47;13.07;;;;;;;;;;4953431;29;20115;-75
2024/01/10 10:15:25;;;;;;;42.50;19.52;;;;;;;;;;4973462;28;20103;-76
2024/01/10 10:17:53;;;;;;;34.65;16.52;;;;;;;;;;4953066;29;20032;-78
2024/01/10 10:20:26;;;;;;;39.20;17.17;;;;;;;;;;4954699;29;20090;-78
2024/01/10 10:22:54;;;;;;;;;;;;;;;;;;4945266;29;20048;-76
2024/01/10 10:25:21;;;;;;;36.40;15.45;;;;;;;;;;4975039;28;19906;-77
2024/01/10 10:27:47;;;;;;;30.58;12.95;;;;;;;;;;4976424;28;20095;-76
2024/01/10 10:30:13;;;;;;;26.02;11.02;;;;;;;;;;4956035;29;20040;-77
2024/01/10 10:32:40;;;;;;;24.60;10.73;;;;;;;;;;4975696;28;20203;-77
2024/01/10 10:35:07;;;;;;;25.80;10.38;;;;;;;;;;4974691;28;20043;-76
2024/01/10 10:37:33;;;;;;;24.05;10.35;;;;;;;;;;4973838;28;20089;-79
2024/01/10 10:40:01;;;;;;;27.27;11.75;;;;;;;;;;5042450;28;20009;-79
2024/01/10 10:42:29;;;;;;;26.80;11.70;;;;;;;;;;5080356;28;20085;-80
2024/01/10 10:44:58;;;;;;;22.13;10.40;;;;;;;;;;5059928;28;20062;-80
2024/01/10 10:47:27;;;;;;;28.30;10.27;;;;;;;;;;5090863;28;20041;-80
2024/01/10 10:49:54;;;;;;;28.77;10.70;;;;;;;;;;5067584;28;20028;-76
2024/01/10 10:52:21;;;;;;;26.20;10.30;;;;;;;;;;5051829;28;20029;-79
2024/01/10 10:54:48;;;;;;;51.38;11.52;;;;;;;;;;5058464;28;20089;-83
2024/01/10 10:57:19;;;;;;;29.85;10.38;;;;;;;;;;5098877;28;20047;-80
2024/01/10 10:59:46;;;;;;;29.50;12.35;;;;;;;;;;5057681;28;20060;-76
2024/01/10 11:02:12;;;;;;;26.55;10.93;;;;;;;;;;5064048;28;20034;-77
2024/01/10 11:04:38;;;;;;;25.30;10.43;;;;;;;;;;5056654;28;20020;-78
2024/01/10 11:07:05;;;;;;;25.77;12.35;;;;;;;;;;5058630;28;20022;-78
2024/01/10 11:09:31;;;;;;;25.40;10.65;;;;;;;;;;5063438;28;20009;-78
2024/01/10 11:11:57;;;;;;;21.23;9.05;;;;;;;;;;5058825;28;20017;-76
2024/01/10 11:14:27;;;;;;;22.80;10.32;;;;;;;;;;5061463;28;20036;-79
2024/01/10 11:17:14;;;;;;;24.42;10.35;;;;;;;;;;5050996;28;20021;-79
2024/01/10 11:19:55;;;;;;;28.00;11.60;;;;;;;;;;5060430;28;20025;-79
2024/01/10 11:22:40;;;;;;;40.60;16.07;;;;;;;;;;5056465;28;20042;-82
2024/01/10 11:25:08;;;;;;;52.22;20.90;;;;;;;;;;5059077;28;20272;-86
2024/01/10 11:27:34;;;;;;;55.65;21.65;;;;;;;;;;5090034;28;20012;-85
2024/01/10 11:30:05;;;;;;;39.67;15.23;;;;;;;;;;5057215;28;20029;-86
2024/01/10 11:32:35;;;;;;;37.27;14.90;;;;;;;;;;5061308;28;20039;-83
2024/01/10 11:35:09;;;;;;;39.27;13.30;;;;;;;;;;5057091;28;20273;-84
2024/01/10 11:37:45;;;;;;;40.00;14.40;;;;;;;;;;5054961;28;20326;-87
2024/01/10 11:40:12;;;;;;;28.13;11.83;;;;;;;;;;5070147;28;20833;-84
2024/01/10 11:42:42;;;;;;;27.77;13.03;;;;;;;;;;5061332;28;20299;-82
2024/01/10 11:45:08;;;;;;;30.73;12.17;;;;;;;;;;5056494;28;20362;-86
2024/01/10 11:47:34;;;;;;;26.60;12.10;;;;;;;;;;5051494;28;20276;-90
2024/01/10 11:50:03;;;;;;;28.23;11.83;;;;;;;;;;5084030;28;20279;-78
2024/01/10 11:52:34;;;;;;;33.33;12.87;;;;;;;;;;5053779;28;20292;-84
2024/01/10 11:55:00;;;;;;;33.10;13.53;;;;;;;;;;5051666;28;20310;-86
2024/01/10 11:57:26;;;;;;;35.00;10.80;;;;;;;;;;5059148;28;20264;-89
2024/01/10 11:59:53;;;;;;;23.67;10.73;;;;;;;;;;5051624;28;20363;-81
2024/01/10 12:02:20;;;;;;;26.17;11.67;;;;;;;;;;5053079;28;20304;-84
2024/01/10 12:04:46;;;;;;;25.30;10.70;;;;;;;;;;5066537;28;20288;-89
2024/01/10 12:07:13;;;;;;;26.37;11.20;;;;;;;;;;5056898;28;20299;-77
2024/01/10 12:09:39;;;;;;;28.73;12.23;;;;;;;;;;5055043;28;20287;-89
2024/01/10 12:12:06;;;;;;;29.73;11.03;;;;;;;;;;5055586;28;20279;-86
2024/01/10 12:14:35;;;;;;;30.67;11.37;;;;;;;;;;5057428;28;20288;-84
2024/01/10 12:17:01;;;;;;;24.27;11.30;;;;;;;;;;5052262;28;20290;-89
2024/01/10 12:19:28;;;;;;;22.97;10.53;;;;;;;;;;5042366;28;20283;-81
2024/01/10 12:21:54;;;;;;;25.13;11.30;;;;;;;;;;5045825;28;20339;-78
2024/01/10 12:24:21;;;;;;;28.70;11.20;;;;;;;;;;5076410;28;20283;-80
2024/01/10 12:26:47;;;;;;;27.03;11.77;;;;;;;;;;5074860;28;20387;-78
2024/01/10 12:29:13;;;;;;;25.80;10.03;;;;;;;;;;5048536;28;20383;-80
2024/01/10 12:31:39;;;;;;;26.13;11.53;;;;;;;;;;5039590;28;20284;-86
2024/01/10 12:34:09;;;;;;;24.50;11.00;;;;;;;;;;5037000;28;20273;-80
2024/01/10 12:36:34;;;;;;;25.50;10.67;;;;;;;;;;5050987;28;20307;-88
2024/01/10 12:39:01;;;;;;;28.63;11.67;;;;;;;;;;5040027;28;20369;-84
2024/01/10 12:41:29;;;;;;;29.07;10.20;;;;;;;;;;5041124;28;20310;-85
2024/01/10 12:43:56;;;;;;;30.57;13.03;;;;;;;;;;5054506;28;20287;-87
2024/01/10 12:46:24;;;;;;;23.03;10.57;;;;;;;;;;5070803;28;20325;-90
2024/01/10 12:49:01;;;;;;;27.23;11.47;;;;;;;;;;5054076;28;20821;-87
2024/01/10 12:51:29;;;;;;;22.50;10.17;;;;;;;;;;5043128;28;20296;-85
2024/01/10 12:53:56;;;;;;;23.33;11.33;;;;;;;;;;5038991;28;20323;-85
2024/01/10 12:56:22;;;;;;;27.33;11.73;;;;;;;;;;5055486;28;20385;-85
2024/01/10 12:58:48;;;;;;;27.97;11.37;;;;;;;;;;5037383;28;20300;-84
2024/01/10 13:01:15;;;;;;;25.40;11.80;;;;;;;;;;5041078;28;20291;-88
2024/01/10 13:03:41;;;;;;;23.50;11.97;;;;;;;;;;5041615;28;20030;-91
2024/01/10 13:06:07;;;;;;;26.07;12.27;;;;;;;;;;5037414;28;20279;-83
2024/01/10 13:08:33;;;;;;;28.17;12.30;;;;;;;;;;5036195;28;20225;-84
2024/01/10 13:11:04;;;;;;;30.13;11.40;;;;;;;;;;5038573;28;20283;-83
2024/01/10 13:13:37;;;;;;;25.83;12.07;;;;;;;;;;5052010;28;20029;-84
2024/01/10 13:16:03;;;;;;;27.43;11.17;;;;;;;;;;5049401;28;20295;-88
2024/01/10 13:18:29;;;;;;;29.13;11.77;;;;;;;;;;5039306;28;20284;-88
2024/01/10 13:20:56;;;;;;;28.40;12.67;;;;;;;;;;5036116;28;20293;-84
2024/01/10 13:23:23;;;;;;;26.13;11.87;;;;;;;;;;5037502;28;20377;-84
2024/01/10 13:25:49;;;;;;;27.83;11.37;;;;;;;;;;5054136;28;20676;-82
2024/01/10 13:28:15;;;;;;;26.10;11.93;;;;;;;;;;5040490;28;20279;-82
2024/01/10 13:30:42;;;;;;;28.97;10.87;;;;;;;;;;5040517;28;20281;-85
2024/01/10 13:33:09;;;;;;;27.40;12.13;;;;;;;;;;5049931;28;20281;-88
2024/01/10 13:35:35;;;;;;;25.57;10.13;;;;;;;;;;5052643;28;20380;-86
2024/01/10 13:38:01;;;;;;;27.20;12.73;;;;;;;;;;5037739;28;20276;-85
2024/01/10 13:40:27;;;;;;;28.53;13.13;;;;;;;;;;5052009;28;21921;-90
2024/01/10 13:42:54;;;;;;;32.10;12.40;;;;;;;;;;5036763;28;20312;-84
2024/01/10 13:45:21;;;;;;;28.37;12.73;;;;;;;;;;5036710;28;20113;-85
2024/01/10 13:47:49;;;;;;;24.50;10.53;;;;;;;;;;5051692;28;20305;-86
2024/01/10 13:50:15;;;;;;;27.37;12.77;;;;;;;;;;5052353;28;20280;-84
2024/01/10 13:52:41;;;;;;;31.07;13.83;;;;;;;;;;5037837;28;20269;-91
2024/01/10 13:55:09;;;;;;;27.00;11.07;;;;;;;;;;5069124;28;20284;-85
2024/01/10 13:57:35;;;;;;;24.27;10.33;;;;;;;;;;5052777;28;20279;-84
2024/01/10 14:00:01;;;;;;;29.07;11.63;;;;;;;;;;5035863;28;20324;-88
2024/01/10 14:02:30;;;;;;;23.63;10.80;;;;;;;;;;5035122;28;20049;-89
2024/01/10 14:04:59;;;;;;;26.43;11.73;;;;;;;;;;5051038;28;20272;-84
2024/01/10 14:07:25;;;;;;;25.27;11.57;;;;;;;;;;5037546;28;20299;-85
2024/01/10 14:09:54;;;;;;;61.23;24.87;;;;;;;;;;5033315;28;20497;-88
2024/01/10 14:12:20;;;;;;;42.90;17.77;;;;;;;;;;5036358;28;20284;-87
2024/01/10 14:14:46;;;;;;;25.37;13.07;;;;;;;;;;5034516;28;20279;-88
2024/01/10 14:17:12;;;;;;;28.47;11.50;;;;;;;;;;5048762;28;20284;-89
2024/01/10 14:19:38;;;;;;;28.80;12.87;;;;;;;;;;5054043;28;20308;-89
2024/01/10 14:22:04;;;;;;;31.37;14.07;;;;;;;;;;5054716;28;20053;-86
2024/01/10 14:24:33;;;;;;;27.27;12.37;;;;;;;;;;5051566;28;20272;-86
2024/01/10 14:26:59;;;;;;;33.93;12.63;;;;;;;;;;5053009;28;20276;-87
2024/01/10 14:29:25;;;;;;;25.40;11.47;;;;;;;;;;5042320;28;20272;-89
2024/01/10 14:31:51;;;;;;;26.73;12.47;;;;;;;;;;5043621;28;20048;-91
2024/01/10 14:34:17;;;;;;;27.57;12.43;;;;;;;;;;5044254;28;20034;-88
2024/01/10 14:36:43;;;;;;;25.73;11.53;;;;;;;;;;5040172;28;20287;-88